Aviation Digital Data Service (ADDS)

Output produced by METARs form (1752 UTC 30 September 2014)
found at http://www.aviationweather.gov/adds/metars/
 
KDFW 301720Z 3018/0124 18010KT P6SM BKN035 BKN250 
     FM010100 16008KT P6SM SCT250 
     FM011400 18013G23KT P6SM SCT035 SCT100